createdAt,value
2023-04-20T00:00:24.989Z,4.15
2023-04-20T00:03:27.456Z,4.21
2023-04-20T00:06:30.285Z,4.13
2023-04-20T00:09:32.016Z,4.11
2023-04-20T00:12:33.655Z,4.03
2023-04-20T00:15:35.275Z,3.95
2023-04-20T00:18:36.874Z,3.83
2023-04-20T00:21:38.448Z,3.85
2023-04-20T00:24:40.322Z,3.85
2023-04-20T00:27:44.609Z,3.79
2023-04-20T00:30:46.209Z,3.62
2023-04-20T00:33:48.342Z,3.46
2023-04-20T00:36:49.856Z,3.40
2023-04-20T00:39:51.892Z,3.30
2023-04-20T00:42:53.479Z,3.25
2023-04-20T00:45:55.132Z,3.12
2023-04-20T00:48:56.737Z,2.87
2023-04-20T00:51:58.758Z,3.03
2023-04-20T00:55:00.732Z,3.05
2023-04-20T00:58:02.369Z,3.10
2023-04-20T01:01:04.048Z,2.93
2023-04-20T01:04:07.971Z,3.03
2023-04-20T01:07:09.710Z,2.82
2023-04-20T01:10:11.263Z,2.87
2023-04-20T01:13:12.809Z,2.78
2023-04-20T01:16:14.370Z,2.81
2023-04-20T01:19:16.139Z,2.66
2023-04-20T01:22:18.740Z,2.73
2023-04-20T01:25:20.563Z,2.63
2023-04-20T01:28:22.836Z,2.57
2023-04-20T01:31:24.368Z,2.61
2023-04-20T01:34:26.024Z,2.71
2023-04-20T01:37:27.578Z,2.60
2023-04-20T01:40:29.201Z,2.42
2023-04-20T01:43:30.864Z,2.38
2023-04-20T01:46:32.486Z,2.14
2023-04-20T01:49:34.116Z,2.05
2023-04-20T01:52:35.728Z,1.93
2023-04-20T01:55:37.313Z,1.83
2023-04-20T01:58:38.872Z,1.72
2023-04-20T02:01:40.430Z,1.66
2023-04-20T02:04:41.960Z,1.56
2023-04-20T02:07:43.456Z,1.61
2023-04-20T02:10:45.046Z,1.58
2023-04-20T02:13:46.530Z,1.49
2023-04-20T02:16:48.065Z,1.39
2023-04-20T02:19:49.606Z,1.34
2023-04-20T02:22:51.156Z,1.35
2023-04-20T02:25:52.829Z,1.37
2023-04-20T02:28:54.435Z,1.18
2023-04-20T02:31:55.964Z,1.18
2023-04-20T02:34:57.495Z,1.18
2023-04-20T02:37:59.061Z,1.10
2023-04-20T02:41:00.556Z,1.04
2023-04-20T02:44:02.133Z,1.09
2023-04-20T02:47:03.672Z,1.23
2023-04-20T02:50:05.981Z,1.16
2023-04-20T02:53:07.731Z,1.16
2023-04-20T02:56:09.317Z,0.93
2023-04-20T02:59:11.008Z,1.17
2023-04-20T03:02:16.369Z,1.27
2023-04-20T03:05:18.015Z,1.26
2023-04-20T03:08:19.559Z,1.32
2023-04-20T03:11:21.073Z,1.38
2023-04-20T03:14:22.652Z,1.17
2023-04-20T03:17:24.179Z,0.98
2023-04-20T03:20:25.783Z,0.89
2023-04-20T03:23:27.286Z,0.97
2023-04-20T03:26:29.129Z,0.98
2023-04-20T03:29:30.720Z,1.07
2023-04-20T03:32:32.831Z,0.95
2023-04-20T03:35:34.488Z,0.87
2023-04-20T03:38:36.086Z,0.76
2023-04-20T03:41:37.708Z,0.58
2023-04-20T03:44:42.185Z,0.59
2023-04-20T03:51:18.457Z,0.66
2023-04-20T03:54:23.120Z,0.73
2023-04-20T03:57:24.805Z,0.64
2023-04-20T04:00:26.756Z,0.72
2023-04-20T04:03:28.395Z,0.67
2023-04-20T04:06:30.024Z,0.62
2023-04-20T04:09:31.536Z,0.39
2023-04-20T04:12:36.179Z,0.36
2023-04-20T04:15:37.779Z,0.48
2023-04-20T04:18:43.638Z,0.55
2023-04-20T04:21:45.345Z,0.48
2023-04-20T04:24:46.979Z,0.42
2023-04-20T04:27:48.657Z,0.38
2023-04-20T04:30:50.204Z,0.20
2023-04-20T04:33:51.718Z,0.34
2023-04-20T04:36:53.255Z,0.49
2023-04-20T04:39:54.843Z,0.41
2023-04-20T04:42:56.388Z,0.31
2023-04-20T04:45:58.513Z,0.37
2023-04-20T04:49:01.272Z,0.36
2023-04-20T04:52:02.767Z,0.42
2023-04-20T04:55:08.439Z,0.46
2023-04-20T04:58:10.057Z,0.46
2023-04-20T05:01:11.793Z,0.39
2023-04-20T05:04:14.061Z,0.50
2023-04-20T05:07:15.690Z,0.48
2023-04-20T05:10:17.257Z,0.48
2023-04-20T05:13:18.813Z,0.43
2023-04-20T05:16:20.444Z,0.54
2023-04-20T05:19:22.001Z,0.45
2023-04-20T05:22:23.557Z,0.38
2023-04-20T05:25:32.828Z,0.39
2023-04-20T05:28:34.734Z,0.58
2023-04-20T05:31:36.636Z,0.81
2023-04-20T05:34:38.308Z,0.86
2023-04-20T05:37:39.870Z,0.80
2023-04-20T05:40:41.408Z,0.68
2023-04-20T05:43:44.422Z,0.66
2023-04-20T05:46:46.162Z,0.67
2023-04-20T05:49:47.705Z,0.59
2023-04-20T05:52:49.191Z,0.73
2023-04-20T05:55:50.752Z,0.95
2023-04-20T05:58:52.361Z,1.04
2023-04-20T06:01:53.906Z,1.21
2023-04-20T06:04:55.585Z,1.15
2023-04-20T06:07:57.133Z,1.40
2023-04-20T06:10:59.077Z,1.44
2023-04-20T06:14:00.684Z,1.64
2023-04-20T06:17:02.165Z,1.68
2023-04-20T06:20:05.118Z,1.87
2023-04-20T06:23:06.642Z,2.10
2023-04-20T06:26:09.633Z,2.25
2023-04-20T06:29:11.930Z,2.34
2023-04-20T06:32:13.471Z,2.35
2023-04-20T06:35:15.185Z,2.56
2023-04-20T06:38:17.009Z,2.46
2023-04-20T06:41:21.020Z,2.52
2023-04-20T06:44:22.689Z,2.53
2023-04-20T06:47:31.324Z,2.66
2023-04-20T06:50:32.926Z,2.95
2023-04-20T06:53:35.439Z,3.17
2023-04-20T06:56:36.951Z,3.39
2023-04-20T06:59:38.588Z,3.72
2023-04-20T07:02:47.287Z,4.00
2023-04-20T07:05:48.932Z,4.24
2023-04-20T07:08:50.542Z,4.50
2023-04-20T07:11:52.313Z,4.60
2023-04-20T07:14:54.807Z,4.91
2023-04-20T07:17:56.315Z,5.23
2023-04-20T07:20:57.904Z,5.54
2023-04-20T07:23:59.656Z,5.70
2023-04-20T07:27:01.481Z,6.06
2023-04-20T07:30:03.453Z,6.35
2023-04-20T07:33:05.366Z,6.71
2023-04-20T07:36:07.454Z,6.84
2023-04-20T07:39:09.040Z,6.83
2023-04-20T07:42:11.562Z,7.22
2023-04-20T07:45:13.601Z,7.42
2023-04-20T07:48:15.237Z,7.63
2023-04-20T07:51:17.156Z,7.82
2023-04-20T07:54:18.730Z,7.86
2023-04-20T07:57:21.079Z,8.15
2023-04-20T08:00:22.992Z,8.20
2023-04-20T08:03:24.873Z,8.40
2023-04-20T08:06:27.252Z,8.67
2023-04-20T08:09:30.350Z,8.75
2023-04-20T08:12:31.911Z,8.77
2023-04-20T08:15:33.432Z,9.58
2023-04-20T08:18:35.027Z,9.83
2023-04-20T08:21:39.746Z,9.98
2023-04-20T08:24:41.419Z,10.80
2023-04-20T08:27:43.000Z,10.91
2023-04-20T08:30:45.603Z,11.86
2023-04-20T08:33:47.416Z,11.63
2023-04-20T08:36:49.664Z,10.86
2023-04-20T08:39:51.146Z,10.81
2023-04-20T08:42:52.703Z,12.02
2023-04-20T08:45:54.532Z,12.78
2023-04-20T08:48:56.111Z,12.67
2023-04-20T08:51:57.672Z,12.00
2023-04-20T08:54:59.191Z,12.87
2023-04-20T08:58:00.844Z,13.90
2023-04-20T09:01:02.456Z,13.45
2023-04-20T09:04:24.642Z,13.39
2023-04-20T09:07:26.910Z,13.50
2023-04-20T09:10:42.805Z,13.29
2023-04-20T09:13:44.359Z,12.76
2023-04-20T09:16:53.214Z,13.40
2023-04-20T09:19:54.909Z,13.47
2023-04-20T09:22:56.430Z,12.62
2023-04-20T09:25:57.958Z,13.64
2023-04-20T09:28:59.581Z,12.68
2023-04-20T09:32:01.197Z,11.64
2023-04-20T09:35:02.821Z,12.84
2023-04-20T09:38:04.999Z,13.64
2023-04-20T09:41:06.533Z,13.74
2023-04-20T09:44:08.424Z,13.16
2023-04-20T09:47:21.313Z,11.94
2023-04-20T09:50:28.986Z,11.61
2023-04-20T09:53:36.959Z,10.91
2023-04-20T09:56:38.989Z,10.77
2023-04-20T09:59:43.955Z,11.27
2023-04-20T10:02:47.324Z,12.84
2023-04-20T10:05:49.424Z,11.70
2023-04-20T10:08:52.542Z,12.44
2023-04-20T10:12:04.616Z,12.42
2023-04-20T10:15:06.775Z,12.19
2023-04-20T10:18:16.837Z,13.25
2023-04-20T10:21:19.033Z,12.52
2023-04-20T10:24:30.622Z,13.66
2023-04-20T10:27:32.564Z,12.97
2023-04-20T10:30:34.231Z,12.16
2023-04-20T10:33:35.898Z,11.34
2023-04-20T10:36:38.181Z,11.76
2023-04-20T10:39:48.876Z,11.11
2023-04-20T10:42:50.505Z,11.11
2023-04-20T10:45:52.290Z,11.14
2023-04-20T10:49:03.854Z,11.81
2023-04-20T10:52:05.530Z,11.14
2023-04-20T10:55:08.409Z,10.35
2023-04-20T10:58:22.230Z,9.53
2023-04-20T11:02:41.629Z,10.26
2023-04-20T11:05:43.200Z,9.52
2023-04-20T11:08:55.884Z,9.70
2023-04-20T11:12:14.870Z,10.02
2023-04-20T11:15:16.453Z,9.80
2023-04-20T11:18:18.846Z,9.65
2023-04-20T11:21:22.917Z,10.14
2023-04-20T11:24:28.143Z,10.11
2023-04-20T11:27:33.370Z,9.87
2023-04-20T11:30:50.967Z,9.75
2023-04-20T11:33:52.790Z,9.84
2023-04-20T11:36:56.900Z,9.42
2023-04-20T11:40:10.099Z,9.99
2023-04-20T11:43:12.207Z,10.16
2023-04-20T11:46:17.491Z,10.31
2023-04-20T11:49:19.732Z,10.27
2023-04-20T11:52:23.690Z,10.26
2023-04-20T11:55:28.257Z,10.48
2023-04-20T11:59:01.198Z,10.96
2023-04-20T12:02:06.334Z,11.09
2023-04-20T12:05:14.443Z,11.10
2023-04-20T12:08:17.383Z,10.84
2023-04-20T12:11:22.170Z,10.57
2023-04-20T12:14:29.041Z,10.48
2023-04-20T12:17:36.368Z,10.10
2023-04-20T12:20:37.992Z,9.83
2023-04-20T12:24:07.136Z,10.12
2023-04-20T12:31:01.117Z,9.98
2023-04-20T12:34:06.852Z,9.51
2023-04-20T12:37:13.036Z,9.69
2023-04-20T12:40:25.027Z,10.27
2023-04-20T12:43:39.455Z,10.45
2023-04-20T12:46:45.057Z,10.21
2023-04-20T12:49:51.851Z,9.87
2023-04-20T12:54:04.245Z,10.46
2023-04-20T12:56:39.538Z,10.04
2023-04-20T12:59:50.201Z,9.94
2023-04-20T13:02:55.284Z,9.97
2023-04-20T13:05:58.367Z,10.16
2023-04-20T13:09:09.068Z,9.88
2023-04-20T13:12:21.762Z,10.03
2023-04-20T13:15:35.707Z,9.74
2023-04-20T13:18:44.288Z,9.19
2023-04-20T13:22:03.914Z,9.24
2023-04-20T13:25:09.135Z,9.33
2023-04-20T13:28:15.630Z,9.31
2023-04-20T13:31:19.965Z,9.17
2023-04-20T13:34:25.429Z,9.90
2023-04-20T13:37:27.194Z,9.71
2023-04-20T13:40:28.797Z,9.48
2023-04-20T13:43:30.611Z,9.38
2023-04-20T13:46:32.292Z,9.25
2023-04-20T13:49:34.896Z,9.06
2023-04-20T13:52:39.453Z,9.21
2023-04-20T13:55:41.193Z,8.98
2023-04-20T13:58:45.553Z,9.14
2023-04-20T14:01:49.947Z,9.14
2023-04-20T14:04:53.794Z,8.96
2023-04-20T14:07:58.610Z,9.19
2023-04-20T14:11:06.333Z,9.29
2023-04-20T14:14:08.025Z,9.10
2023-04-20T14:17:20.075Z,8.56
2023-04-20T14:20:24.545Z,8.71
2023-04-20T14:23:27.185Z,8.85
2023-04-20T14:26:28.789Z,8.68
2023-04-20T14:29:30.321Z,8.54
2023-04-20T14:32:32.125Z,8.78
2023-04-20T14:35:38.195Z,8.57
2023-04-20T14:38:39.756Z,8.42
2023-04-20T14:41:42.878Z,8.58
2023-04-20T14:44:44.566Z,8.59
2023-04-20T14:47:46.196Z,8.51
2023-04-20T14:50:50.277Z,8.54
2023-04-20T14:53:57.243Z,8.58
2023-04-20T14:56:58.852Z,8.24
2023-04-20T15:00:01.980Z,8.39
2023-04-20T15:03:03.837Z,8.45
2023-04-20T15:06:06.060Z,8.43
2023-04-20T15:09:09.092Z,8.63
2023-04-20T15:12:13.359Z,8.56
2023-04-20T15:15:15.482Z,8.66
2023-04-20T15:18:17.694Z,8.62
2023-04-20T15:21:28.630Z,8.46
2023-04-20T15:24:32.233Z,8.16
2023-04-20T15:27:36.935Z,8.16
2023-04-20T15:30:39.390Z,8.03
2023-04-20T15:33:43.409Z,8.15
2023-04-20T15:36:46.319Z,8.18
2023-04-20T15:39:48.016Z,8.22
2023-04-20T15:42:51.980Z,8.01
2023-04-20T15:45:53.766Z,7.99
2023-04-20T15:48:58.546Z,8.03
2023-04-20T15:52:00.141Z,8.01
2023-04-20T15:55:01.779Z,8.03
2023-04-20T15:58:06.075Z,8.06
2023-04-20T16:01:07.812Z,8.06
2023-04-20T16:04:09.605Z,7.93
2023-04-20T16:07:11.557Z,7.90
2023-04-20T16:10:13.132Z,7.87
2023-04-20T16:13:14.855Z,7.98
2023-04-20T16:16:16.524Z,7.75
2023-04-20T16:19:18.605Z,7.95
2023-04-20T16:22:20.572Z,8.12
2023-04-20T16:25:23.286Z,8.22
2023-04-20T16:28:25.910Z,8.10
2023-04-20T16:31:27.922Z,8.18
2023-04-20T16:34:31.580Z,8.22
2023-04-20T16:37:36.608Z,8.42
2023-04-20T16:40:38.360Z,8.43
2023-04-20T16:43:43.513Z,8.56
2023-04-20T16:46:45.094Z,8.61
2023-04-20T16:49:46.994Z,8.61
2023-04-20T16:52:51.815Z,8.69
2023-04-20T16:55:58.572Z,8.57
2023-04-20T16:59:00.268Z,8.43
2023-04-20T17:02:07.310Z,8.75
2023-04-20T17:05:09.659Z,9.05
2023-04-20T17:08:13.414Z,8.71
2023-04-20T17:11:16.838Z,8.50
2023-04-20T17:14:18.856Z,8.70
2023-04-20T17:17:23.972Z,8.67
2023-04-20T17:20:25.998Z,8.66
2023-04-20T17:23:30.377Z,8.84
2023-04-20T17:26:41.635Z,8.59
2023-04-20T17:29:50.594Z,8.45
2023-04-20T17:32:57.283Z,8.36
2023-04-20T17:36:04.492Z,8.08
2023-04-20T17:39:09.244Z,8.06
2023-04-20T17:42:20.059Z,7.88
2023-04-20T17:45:33.006Z,7.89
2023-04-20T17:48:34.919Z,7.87
2023-04-20T17:51:36.580Z,7.70
2023-04-20T17:55:10.110Z,7.57
2023-04-20T17:58:17.605Z,7.81
2023-04-20T18:01:19.528Z,7.85
2023-04-20T18:04:24.038Z,7.75
2023-04-20T18:07:26.878Z,7.74
2023-04-20T18:10:39.029Z,7.89
2023-04-20T18:13:40.801Z,7.72
2023-04-20T18:16:55.232Z,7.67
2023-04-20T18:19:56.981Z,7.67
2023-04-20T18:23:08.876Z,7.56
2023-04-20T18:26:17.718Z,7.51
2023-04-20T18:29:22.049Z,7.45
2023-04-20T18:32:25.628Z,7.35
2023-04-20T18:35:27.468Z,7.21
2023-04-20T18:38:29.135Z,7.23
2023-04-20T18:41:30.918Z,7.15
2023-04-20T18:44:32.731Z,7.01
2023-04-20T18:47:34.706Z,6.88
2023-04-20T18:50:37.346Z,6.80
2023-04-20T18:53:38.978Z,6.70
2023-04-20T18:56:40.750Z,6.65
2023-04-20T18:59:44.801Z,6.55
2023-04-20T19:02:46.612Z,6.48
2023-04-20T19:05:48.369Z,6.35
2023-04-20T19:08:55.315Z,6.24
2023-04-20T19:11:59.571Z,6.28
2023-04-20T19:15:04.629Z,6.28
2023-04-20T19:18:16.539Z,6.25
2023-04-20T19:21:24.206Z,5.99
2023-04-20T19:24:44.133Z,6.04
2023-04-20T19:27:56.323Z,5.93
2023-04-20T19:31:13.950Z,5.92
2023-04-20T19:34:16.213Z,5.92
2023-04-20T19:37:18.017Z,5.75
2023-04-20T19:40:28.170Z,5.58
2023-04-20T19:43:46.413Z,5.41
2023-04-20T19:50:19.602Z,5.22
2023-04-20T19:53:37.362Z,5.11
2023-04-20T19:56:43.027Z,5.11
2023-04-20T19:59:44.663Z,5.11
2023-04-20T20:02:54.393Z,5.01
2023-04-20T20:06:24.587Z,5.08
2023-04-20T20:09:26.472Z,5.09
2023-04-20T20:12:31.130Z,4.83
2023-04-20T20:15:32.751Z,4.69
2023-04-20T20:18:48.414Z,4.76
2023-04-20T20:21:52.386Z,4.71
2023-04-20T20:24:57.481Z,4.63
2023-04-20T20:28:02.285Z,4.52
2023-04-20T20:34:25.551Z,4.45
2023-04-20T20:37:35.269Z,4.55
2023-04-20T20:40:48.253Z,4.47
2023-04-20T20:43:53.190Z,4.48
2023-04-20T20:50:20.155Z,4.08
2023-04-20T20:53:21.972Z,4.18
2023-04-20T20:56:25.824Z,4.06
2023-04-20T20:59:32.346Z,3.92
2023-04-20T21:02:40.897Z,3.69
2023-04-20T21:05:42.816Z,3.76
2023-04-20T21:08:49.107Z,3.80
2023-04-20T21:11:53.249Z,3.76
2023-04-20T21:14:57.940Z,3.76
2023-04-20T21:18:08.394Z,3.80
2023-04-20T21:21:13.658Z,3.80
2023-04-20T21:24:18.916Z,3.45
2023-04-20T21:27:27.916Z,3.26
2023-04-20T21:30:32.230Z,3.19
2023-04-20T21:33:37.703Z,3.29
2023-04-20T21:36:59.430Z,3.24
2023-04-20T21:40:10.107Z,3.11
2023-04-20T21:43:38.576Z,3.20
2023-04-20T21:46:41.701Z,3.23
2023-04-20T21:49:48.200Z,3.32
2023-04-20T21:53:06.625Z,3.22
2023-04-20T21:56:23.451Z,3.09
2023-04-20T21:59:33.847Z,3.04
2023-04-20T22:02:41.402Z,2.98
2023-04-20T22:06:00.776Z,3.09
2023-04-20T22:09:02.917Z,3.10
2023-04-20T22:12:05.338Z,3.09
2023-04-20T22:15:14.589Z,2.86
2023-04-20T22:18:18.947Z,2.75
2023-04-20T22:21:24.175Z,2.69
2023-04-20T22:24:31.189Z,2.67
2023-04-20T22:27:44.930Z,2.73
2023-04-20T22:30:55.589Z,2.85
2023-04-20T22:33:59.631Z,2.73
2023-04-20T22:37:03.567Z,2.77
2023-04-20T22:40:08.418Z,2.58
2023-04-20T22:43:12.446Z,2.57
2023-04-20T22:46:14.275Z,2.45
2023-04-20T22:49:26.555Z,2.38
2023-04-20T22:52:31.571Z,2.26
2023-04-20T22:55:33.354Z,2.38
2023-04-20T22:58:35.324Z,2.49
2023-04-20T23:01:39.758Z,2.55
2023-04-20T23:05:04.320Z,2.54
2023-04-20T23:08:10.237Z,2.43
2023-04-20T23:11:15.255Z,2.18
2023-04-20T23:14:20.051Z,2.16
2023-04-20T23:17:24.096Z,2.15
2023-04-20T23:20:36.935Z,2.18
2023-04-20T23:23:49.827Z,2.18
2023-04-20T23:26:53.549Z,2.02
2023-04-20T23:30:06.215Z,2.04
2023-04-20T23:33:13.178Z,2.09
2023-04-20T23:36:18.645Z,2.05
2023-04-20T23:39:24.141Z,2.11
2023-04-20T23:42:28.482Z,1.79
2023-04-20T23:45:35.794Z,1.80
2023-04-20T23:48:49.608Z,1.77
2023-04-20T23:51:57.430Z,1.75
2023-04-20T23:54:59.409Z,1.89
2023-04-20T23:58:06.458Z,1.65
